Time;durP1;ratioP1;P1;durP2;ratioP2;P2;SDS_P1;SDS_P2;PMS_P1;PMS_P2;Temp;Humidity;BMP_temperature;BMP_pressure;BME280_temperature;BME280_humidity;BME280_pressure;Samples;Min_cycle;Max_cycle;Signal;HPM_P1;HPM_P2
2023/10/16 00:01:09;;;;;;;0.90;0.90;;;;;;;4.07;85.46;99270.16;4102895;28;20221;-46
2023/10/16 00:03:14;;;;;;;1.30;1.23;;;;;;;3.97;85.60;99266.94;4120254;28;20244;-47
2023/10/16 00:05:18;;;;;;;1.10;1.02;;;;;;;4.03;85.69;99266.19;4118637;28;20582;-47
2023/10/16 00:07:21;;;;;;;1.10;1.10;;;;;;;4.06;85.95;99276.63;4101816;28;20485;-47
2023/10/16 00:09:23;;;;;;;2.55;1.30;;;;;;;4.12;85.68;99269.59;4104742;28;20262;-47
2023/10/16 00:11:25;;;;;;;1.35;1.25;;;;;;;4.09;85.48;99265.41;4104596;28;20207;-46
2023/10/16 00:13:27;;;;;;;1.33;1.33;;;;;;;4.09;84.95;99270.84;4104011;28;20234;-47
2023/10/16 00:15:40;;;;;;;0.90;0.90;;;;;;;4.01;84.71;99268.22;4083065;28;20314;-46
2023/10/16 00:17:43;;;;;;;0.85;0.85;;;;;;;3.98;84.91;99271.31;4101090;28;20211;-48
2023/10/16 00:19:45;;;;;;;1.40;1.40;;;;;;;3.95;84.59;99274.38;4135799;28;20871;-47
2023/10/16 00:21:47;;;;;;;2.05;1.95;;;;;;;3.93;84.95;99264.81;4116277;28;20261;-47
2023/10/16 00:23:49;;;;;;;1.58;1.48;;;;;;;3.97;85.34;99271.50;4118911;28;20593;-46
2023/10/16 00:25:51;;;;;;;1.00;1.00;;;;;;;3.69;85.54;99263.25;4118352;28;20669;-48
2023/10/16 00:27:53;;;;;;;1.00;1.00;;;;;;;3.77;84.99;99265.84;4115501;28;20219;-47
2023/10/16 00:29:55;;;;;;;1.05;1.05;;;;;;;3.74;84.84;99276.22;4101309;28;20306;-46
2023/10/16 00:32:00;;;;;;;1.23;1.13;;;;;;;3.74;84.97;99259.97;4118482;28;20210;-47
2023/10/16 00:34:05;;;;;;;1.45;1.20;;;;;;;3.79;84.58;99268.34;4120531;28;20296;-47
2023/10/16 00:36:06;;;;;;;0.93;0.93;;;;;;;3.78;84.77;99261.25;4103935;28;20614;-47
2023/10/16 00:38:13;;;;;;;1.30;1.30;;;;;;;3.72;84.67;99257.44;4101842;28;20215;-47
2023/10/16 00:40:29;;;;;;;1.77;1.67;;;;;;;3.67;84.22;99268.00;4119337;28;20202;-46
2023/10/16 00:42:32;;;;;;;1.30;1.20;;;;;;;3.71;84.86;99265.75;4120597;28;20381;-46
2023/10/16 00:44:34;;;;;;;1.42;1.30;;;;;;;3.64;84.81;99257.56;4104056;28;20306;-46
2023/10/16 00:46:37;;;;;;;1.48;1.38;;;;;;;3.63;84.89;99255.88;4104591;28;20763;-47
2023/10/16 00:48:39;;;;;;;1.25;1.25;;;;;;;3.68;85.01;99250.72;4085696;28;20228;-47
2023/10/16 00:50:44;;;;;;;1.23;1.23;;;;;;;3.71;84.94;99244.94;4100999;28;20210;-47
2023/10/16 00:52:46;;;;;;;1.38;1.27;;;;;;;3.72;84.63;99259.31;4116491;28;20269;-47
2023/10/16 00:54:48;;;;;;;1.20;1.20;;;;;;;3.64;84.49;99254.84;4116363;28;20229;-46
2023/10/16 00:56:50;;;;;;;2.15;2.00;;;;;;;3.64;84.15;99249.44;4120788;28;20211;-47
2023/10/16 00:58:52;;;;;;;1.13;1.02;;;;;;;3.62;84.04;99237.97;4098734;28;20683;-46
2023/10/16 01:00:57;;;;;;;1.20;1.20;;;;;;;3.65;84.00;99243.00;4103731;28;20729;-47
2023/10/16 01:03:04;;;;;;;1.25;1.25;;;;;;;3.53;84.02;99239.09;4130609;28;20255;-47
2023/10/16 01:05:09;;;;;;;1.50;1.40;;;;;;;3.51;84.27;99230.34;4101038;28;20210;-46
2023/10/16 01:07:14;;;;;;;1.10;1.10;;;;;;;3.42;84.58;99234.16;4117011;28;20218;-47
2023/10/16 01:09:23;;;;;;;1.02;1.02;;;;;;;3.40;85.15;99235.38;4117727;28;20265;-46
2023/10/16 01:11:26;;;;;;;1.63;1.30;;;;;;;3.40;85.30;99224.56;4120229;28;20300;-47
2023/10/16 01:13:28;;;;;;;1.48;1.48;;;;;;;3.48;85.61;99221.75;4104065;28;20231;-48
2023/10/16 01:15:30;;;;;;;1.35;1.30;;;;;;;3.54;85.17;99229.94;4086512;28;20223;-47
2023/10/16 01:17:32;;;;;;;1.10;1.10;;;;;;;3.48;84.97;99225.28;4102561;28;20211;-47
2023/10/16 01:19:36;;;;;;;1.30;1.30;;;;;;;3.33;84.53;99226.34;4118974;28;20254;-47
2023/10/16 01:21:39;;;;;;;1.55;1.45;;;;;;;3.13;84.89;99234.16;4119638;28;20275;-46
2023/10/16 01:23:44;;;;;;;1.20;1.20;;;;;;;3.36;85.95;99229.50;4101722;28;20238;-47
2023/10/16 01:25:47;;;;;;;1.45;1.45;;;;;;;2.83;89.17;99227.03;4119725;28;20620;-48
2023/10/16 01:27:48;;;;;;;3.63;1.85;;;;;;;2.70;89.40;99232.25;4119383;28;20349;-46
2023/10/16 01:29:52;;;;;;;0.90;0.90;;;;;;;2.67;89.20;99226.34;4119155;28;20206;-48
2023/10/16 01:31:54;;;;;;;1.55;1.45;;;;;;;2.78;88.77;99232.16;4119623;28;20214;-46
2023/10/16 01:33:56;;;;;;;1.15;1.15;;;;;;;2.82;88.20;99228.03;4115926;28;20234;-46
2023/10/16 01:35:58;;;;;;;1.48;1.48;;;;;;;2.88;87.64;99226.50;4135140;28;20436;-46
2023/10/16 01:37:59;;;;;;;1.15;1.15;;;;;;;2.95;87.68;99220.16;4101029;28;20855;-48
2023/10/16 01:42:21;;;;;;;1.35;1.25;;;;;;;3.11;86.19;99219.13;4101459;28;20270;-47
2023/10/16 01:44:23;;;;;;;1.73;1.35;;;;;;;3.04;85.86;99212.78;4116113;28;20202;-46
2023/10/16 01:46:25;;;;;;;1.23;1.23;;;;;;;3.04;85.52;99219.06;4100189;28;20206;-47
2023/10/16 01:48:28;;;;;;;1.08;1.08;;;;;;;3.03;85.98;99220.09;4101130;28;20219;-47
2023/10/16 01:50:32;;;;;;;1.90;1.45;;;;;;;3.00;85.47;99228.53;4101425;28;20224;-48
2023/10/16 01:52:34;;;;;;;1.08;1.08;;;;;;;3.14;85.70;99219.59;4102766;28;20281;-46
2023/10/16 01:54:40;;;;;;;5.13;1.65;;;;;;;2.96;85.51;99221.00;4119207;28;20226;-48
2023/10/16 01:56:42;;;;;;;1.00;1.00;;;;;;;2.92;85.16;99216.97;4117576;28;20206;-47
2023/10/16 01:58:49;;;;;;;1.55;1.48;;;;;;;2.89;85.70;99228.16;4105533;28;20230;-46
2023/10/16 02:00:54;;;;;;;1.35;1.35;;;;;;;2.82;86.13;99224.53;4117007;28;20268;-47
2023/10/16 02:02:57;;;;;;;3.75;1.40;;;;;;;2.85;86.23;99213.31;4101527;28;20304;-46
2023/10/16 02:04:59;;;;;;;9.68;1.92;;;;;;;2.90;86.36;99217.19;4105640;28;20257;-47
2023/10/16 02:07:01;;;;;;;1.55;1.42;;;;;;;2.93;86.08;99205.97;4102273;28;20269;-47
2023/10/16 02:09:04;;;;;;;0.95;0.95;;;;;;;2.98;85.98;99206.28;4102390;28;20219;-46
2023/10/16 02:11:10;;;;;;;5.78;1.58;;;;;;;2.84;85.69;99201.69;4101549;28;20348;-46
2023/10/16 02:13:12;;;;;;;1.63;1.58;;;;;;;2.90;86.26;99213.63;4116711;28;20237;-47
2023/10/16 02:15:15;;;;;;;1.60;1.50;;;;;;;2.78;85.60;99202.44;4133919;28;20279;-48
2023/10/16 02:17:21;;;;;;;1.02;1.02;;;;;;;2.81;86.48;99207.44;4119048;28;20210;-47
2023/10/16 02:19:25;;;;;;;2.40;1.00;;;;;;;2.76;86.21;99199.09;4133243;28;20209;-46
2023/10/16 02:21:26;;;;;;;1.02;1.02;;;;;;;2.81;86.41;99193.13;4119156;28;20684;-46
2023/10/16 02:23:30;;;;;;;1.27;1.17;;;;;;;2.63;86.18;99193.47;4117066;28;20261;-46
2023/10/16 02:25:34;;;;;;;1.25;1.25;;;;;;;2.77;86.99;99192.66;4102295;28;20218;-47
2023/10/16 02:27:36;;;;;;;1.55;1.45;;;;;;;2.72;86.50;99188.81;4117197;28;20209;-47
2023/10/16 02:29:52;;;;;;;1.00;1.00;;;;;;;2.76;86.62;99190.13;4108802;28;20325;-47
2023/10/16 02:31:54;;;;;;;1.35;1.35;;;;;;;2.77;86.55;99189.94;4103593;28;20226;-46
2023/10/16 02:34:05;;;;;;;1.77;1.58;;;;;;;2.80;85.79;99184.16;4134590;28;20229;-47
2023/10/16 02:36:08;;;;;;;1.35;1.25;;;;;;;2.74;86.79;99194.88;4132415;28;20232;-46
2023/10/16 02:38:14;;;;;;;1.30;1.30;;;;;;;2.39;89.16;99193.69;4116246;28;20211;-46
2023/10/16 02:40:17;;;;;;;2.50;2.40;;;;;;;2.51;89.15;99189.53;4101392;28;21033;-47
2023/10/16 02:42:19;;;;;;;1.60;1.52;;;;;;;2.50;88.26;99193.25;4102285;28;20219;-46
2023/10/16 02:44:22;;;;;;;1.52;1.52;;;;;;;2.45;88.14;99184.00;4101783;28;20206;-47
2023/10/16 02:46:23;;;;;;;1.35;1.25;;;;;;;2.46;88.36;99180.28;4117212;28;20206;-46
2023/10/16 02:48:27;;;;;;;1.25;1.25;;;;;;;2.55;87.98;99184.59;4116799;28;20206;-47
2023/10/16 02:50:29;;;;;;;1.00;1.00;;;;;;;2.51;87.75;99189.53;4118173;28;20221;-47
2023/10/16 02:52:30;;;;;;;2.30;1.40;;;;;;;2.59;87.00;99185.88;4106284;28;20257;-46
2023/10/16 02:54:32;;;;;;;1.25;1.25;;;;;;;2.05;89.48;99198.69;4101740;28;20554;-46
2023/10/16 02:56:34;;;;;;;1.48;1.38;;;;;;;1.94;90.76;99191.00;4135135;28;20214;-47
2023/10/16 02:58:42;;;;;;;1.13;1.13;;;;;;;2.03;90.85;99189.94;4116675;28;20300;-47
2023/10/16 03:00:49;;;;;;;1.10;1.10;;;;;;;2.19;90.65;99189.78;4117961;28;20253;-45
2023/10/16 03:02:51;;;;;;;2.10;1.38;;;;;;;2.27;89.76;99176.22;4104952;28;20230;-48
2023/10/16 03:04:56;;;;;;;1.15;1.15;;;;;;;2.39;89.32;99180.19;4103278;28;20243;-47
2023/10/16 03:06:59;;;;;;;1.20;1.20;;;;;;;2.39;88.55;99180.19;4117538;28;20586;-46
2023/10/16 03:09:25;;;;;;;1.60;1.50;;;;;;;2.38;88.02;99178.50;4134535;28;20446;-47
2023/10/16 03:11:27;;;;;;;1.67;1.58;;;;;;;2.42;88.36;99178.97;4103725;28;20207;-47
2023/10/16 03:13:29;;;;;;;1.25;1.20;;;;;;;2.45;88.65;99179.44;4099558;28;20235;-47
2023/10/16 03:15:38;;;;;;;1.77;0.98;;;;;;;2.40;88.05;99181.84;4103719;28;20225;-47
2023/10/16 03:17:41;;;;;;;1.25;1.25;;;;;;;2.54;88.10;99183.75;4120445;28;20206;-46
2023/10/16 03:19:44;;;;;;;1.45;1.35;;;;;;;2.23;88.25;99191.13;4118810;28;20341;-47
2023/10/16 03:21:45;;;;;;;1.23;1.23;;;;;;;2.27;89.88;99192.44;4104956;28;20269;-47
2023/10/16 03:23:47;;;;;;;1.45;1.45;;;;;;;2.25;88.99;99189.06;4104961;28;20230;-47
2023/10/16 03:25:50;;;;;;;1.67;1.15;;;;;;;2.32;89.41;99190.03;4103629;28;20218;-47
2023/10/16 03:27:55;;;;;;;1.20;1.10;;;;;;;2.37;89.55;99192.19;4106793;28;20734;-46
2023/10/16 03:29:57;;;;;;;1.23;1.20;;;;;;;2.35;88.87;99188.84;4103113;28;20211;-47
2023/10/16 03:31:59;;;;;;;1.02;1.02;;;;;;;2.35;89.12;99188.84;4102954;28;20313;-46
2023/10/16 03:34:01;;;;;;;1.13;1.13;;;;;;;2.35;88.58;99188.84;4102056;28;20807;-47
2023/10/16 03:36:03;;;;;;;0.90;0.90;;;;;;;2.29;87.52;99174.22;4134025;28;20256;-47
2023/10/16 03:38:11;;;;;;;1.13;1.13;;;;;;;2.30;87.84;99194.78;4135613;28;20209;-47
2023/10/16 03:40:13;;;;;;;1.63;1.63;;;;;;;2.29;87.59;99186.84;4100806;28;20326;-46
2023/10/16 03:42:17;;;;;;;1.40;1.40;;;;;;;2.34;87.37;99181.75;4119830;28;20658;-47
2023/10/16 03:44:21;;;;;;;1.13;1.13;;;;;;;2.26;87.03;99188.06;4119503;28;20531;-47
2023/10/16 03:46:26;;;;;;;1.08;1.08;;;;;;;2.24;87.41;99184.72;4119714;28;20268;-46
2023/10/16 03:48:28;;;;;;;1.08;1.08;;;;;;;2.19;87.61;99184.41;4104013;28;20206;-47
2023/10/16 03:50:38;;;;;;;1.00;1.00;;;;;;;2.12;87.95;99172.66;4120492;28;20695;-47
2023/10/16 03:52:40;;;;;;;1.05;1.05;;;;;;;2.09;88.08;99178.44;4106372;28;20234;-46
2023/10/16 03:54:41;;;;;;;1.00;1.00;;;;;;;2.22;88.11;99175.94;4125268;28;20202;-48
2023/10/16 03:56:44;;;;;;;3.42;1.15;;;;;;;2.08;87.86;99175.91;4119542;28;20320;-46
2023/10/16 03:58:47;;;;;;;1.40;1.40;;;;;;;2.12;87.85;99178.03;4088615;28;20216;-47
2023/10/16 04:00:57;;;;;;;1.50;1.23;;;;;;;2.03;87.70;99179.13;4106779;28;20277;-47
2023/10/16 04:02:59;;;;;;;1.55;1.45;;;;;;;1.99;88.94;99176.97;4120944;28;20276;-47
2023/10/16 04:05:08;;;;;;;1.05;1.05;;;;;;;1.59;91.84;99175.38;4106126;28;20207;-47
2023/10/16 04:07:14;;;;;;;1.30;1.30;;;;;;;1.62;91.86;99175.00;4134464;28;20213;-46
2023/10/16 04:09:17;;;;;;;1.10;1.10;;;;;;;1.66;92.36;99170.94;4091781;28;20246;-46
2023/10/16 04:11:21;;;;;;;1.45;1.40;;;;;;;1.78;92.43;99168.69;4105072;28;20246;-46
2023/10/16 04:13:31;;;;;;;1.67;1.67;;;;;;;1.78;91.24;99174.94;4121150;28;20273;-47
2023/10/16 04:17:44;;;;;;;1.35;1.30;;;;;;;1.91;90.39;99163.53;4106204;28;20274;-47
2023/10/16 04:19:59;;;;;;;1.33;1.25;;;;;;;1.90;89.67;99162.72;4101410;28;20223;-47
2023/10/16 04:22:08;;;;;;;1.70;1.60;;;;;;;2.06;89.28;99162.56;4117336;28;20917;-47
2023/10/16 04:24:45;;;;;;;1.50;1.45;;;;;;;2.11;88.95;99170.97;4119475;28;20206;-47
2023/10/16 04:26:48;;;;;;;1.35;1.35;;;;;;;2.04;88.53;99153.81;4101844;28;20213;-47
2023/10/16 04:34:02;;;;;;;1.70;1.60;;;;;;;1.98;87.44;99165.34;4105086;28;20237;-47
2023/10/16 04:38:27;;;;;;;1.60;1.45;;;;;;;1.98;87.75;99159.94;4107454;28;20206;-47
2023/10/16 04:42:49;;;;;;;2.30;2.10;;;;;;;1.94;88.19;99160.50;4104085;28;20234;-48
2023/10/16 04:47:41;;;;;;;1.33;1.33;;;;;;;2.04;87.34;99159.22;4072827;28;20219;-46
2023/10/16 04:49:59;;;;;;;1.80;1.42;;;;;;;1.87;87.55;99163.06;4100436;28;20935;-47
2023/10/16 04:52:07;;;;;;;1.30;1.30;;;;;;;1.85;87.90;99159.69;4118903;28;20562;-46
2023/10/16 04:54:27;;;;;;;2.85;2.28;;;;;;;1.85;87.87;99159.69;4101324;28;20209;-47
2023/10/16 04:56:57;;;;;;;3.95;1.40;;;;;;;1.86;88.53;99155.13;4104012;28;20266;-47
2023/10/16 04:58:59;;;;;;;2.25;2.15;;;;;;;1.84;87.97;99162.56;4101281;28;20211;-46
2023/10/16 05:03:23;;;;;;;1.65;1.48;;;;;;;1.75;88.06;99161.78;4103159;28;20241;-46
2023/10/16 05:05:45;;;;;;;1.73;1.63;;;;;;;1.74;88.43;99156.59;4116866;28;20206;-46
2023/10/16 05:17:21;;;;;;;1.60;1.60;;;;;;;1.64;87.47;99148.72;4100759;28;20286;-49
2023/10/16 06:14:13;;;;;;;1.83;1.73;;;;;;;1.57;89.96;99145.06;4106061;28;20226;-46
2023/10/16 06:16:18;;;;;;;2.58;2.38;;;;;;;1.54;90.01;99139.19;4135489;28;20217;-47
2023/10/16 06:18:20;;;;;;;2.17;2.03;;;;;;;1.55;90.20;99136.28;4100212;28;20214;-47
2023/10/16 06:20:22;;;;;;;2.38;2.17;;;;;;;1.58;90.50;99141.34;4134637;28;20209;-46
2023/10/16 06:22:24;;;;;;;3.38;2.42;;;;;;;1.71;91.32;99147.00;4098800;28;20632;-46
2023/10/16 06:24:28;;;;;;;2.70;2.60;;;;;;;1.66;90.55;99154.78;4132578;28;20272;-46
2023/10/16 06:26:30;;;;;;;2.13;2.03;;;;;;;1.69;90.55;99151.69;4119007;28;20300;-47
2023/10/16 06:28:32;;;;;;;2.25;2.03;;;;;;;1.71;90.39;99151.53;4117144;28;20681;-48
2023/10/16 06:30:37;;;;;;;1.75;1.63;;;;;;;1.77;91.39;99154.38;4104402;28;20206;-46
2023/10/16 06:32:39;;;;;;;4.05;2.90;;;;;;;1.80;90.78;99156.69;4101002;28;20289;-47
2023/10/16 06:34:42;;;;;;;1.42;1.42;;;;;;;1.84;91.18;99160.72;4117528;28;20619;-46
2023/10/16 06:36:44;;;;;;;1.50;1.40;;;;;;;1.86;91.04;99157.81;4119703;28;20277;-50
2023/10/16 06:38:46;;;;;;;4.03;2.83;;;;;;;1.90;90.81;99153.75;4090824;28;20216;-46
2023/10/16 06:40:52;;;;;;;5.22;2.88;;;;;;;2.06;91.37;99157.19;4118366;28;20210;-47
2023/10/16 06:43:09;;;;;;;7.20;1.80;;;;;;;2.11;91.42;99152.09;4102705;28;20230;-46
2023/10/16 06:45:19;;;;;;;1.55;1.45;;;;;;;2.17;91.27;99150.50;4132050;28;20812;-46
2023/10/16 06:47:35;;;;;;;1.67;1.58;;;;;;;2.25;91.12;99145.88;4118917;28;20202;-46
2023/10/16 06:49:38;;;;;;;2.78;2.25;;;;;;;2.32;91.03;99149.53;4116233;28;20744;-46
2023/10/16 06:51:43;;;;;;;1.27;1.27;;;;;;;2.37;91.32;99148.97;4104171;28;20617;-46
2023/10/16 06:53:46;;;;;;;1.70;1.60;;;;;;;2.30;90.92;99154.28;4119738;28;20234;-46
2023/10/16 06:55:50;;;;;;;1.73;1.63;;;;;;;2.33;91.04;99153.09;4106783;28;20218;-45
2023/10/16 06:57:52;;;;;;;2.38;2.28;;;;;;;2.25;89.87;99151.28;4105582;28;20219;-47
2023/10/16 06:59:55;;;;;;;2.75;2.55;;;;;;;2.32;89.99;99163.03;4120651;28;20236;-46
2023/10/16 07:01:57;;;;;;;2.45;2.22;;;;;;;2.20;92.02;99163.66;4122761;28;20230;-47
2023/10/16 07:03:58;;;;;;;1.67;1.63;;;;;;;2.35;92.20;99151.84;4118926;28;20241;-46
2023/10/16 07:06:01;;;;;;;2.15;1.95;;;;;;;2.27;92.21;99154.63;4102669;28;20329;-46
2023/10/16 07:08:04;;;;;;;3.42;3.13;;;;;;;2.48;91.88;99154.78;4116952;28;20210;-46
2023/10/16 07:10:13;;;;;;;3.45;3.20;;;;;;;2.52;92.48;99169.59;4103810;28;20219;-48
2023/10/16 07:12:18;;;;;;;3.10;2.85;;;;;;;2.48;93.49;99173.66;4136626;28;20308;-47
2023/10/16 07:14:21;;;;;;;3.03;2.42;;;;;;;2.67;95.25;99173.16;4119945;28;20214;-46
2023/10/16 07:16:23;;;;;;;2.45;2.25;;;;;;;2.74;95.15;99174.09;4120967;28;20225;-47
2023/10/16 07:18:26;;;;;;;1.10;1.10;;;;;;;2.74;94.75;99174.09;4133976;28;20633;-47
2023/10/16 07:20:28;;;;;;;1.25;1.25;;;;;;;2.79;96.76;99182.50;4118895;28;20786;-46
2023/10/16 07:22:33;;;;;;;1.40;1.40;;;;;;;2.94;96.45;99185.22;4103615;28;20234;-46
2023/10/16 07:24:34;;;;;;;1.52;1.52;;;;;;;3.18;96.58;99183.06;4107071;28;20225;-46
2023/10/16 07:26:38;;;;;;;1.67;1.23;;;;;;;3.39;95.55;99185.84;4102579;28;22825;-46
2023/10/16 07:28:40;;;;;;;1.02;1.02;;;;;;;3.48;95.62;99189.28;4116975;28;20206;-46
2023/10/16 07:30:45;;;;;;;3.17;1.83;;;;;;;3.60;95.56;99190.50;4102529;28;20211;-46
2023/10/16 07:32:47;;;;;;;1.50;1.48;;;;;;;3.76;96.62;99191.09;4104735;28;20305;-46
2023/10/16 07:34:48;;;;;;;1.20;1.20;;;;;;;3.84;96.15;99185.56;4102167;28;20219;-46
2023/10/16 07:36:55;;;;;;;2.63;2.42;;;;;;;4.15;95.80;99174.44;4104859;28;20655;-46
2023/10/16 07:38:57;;;;;;;1.10;1.10;;;;;;;3.99;95.57;99188.25;4119232;28;20198;-47
2023/10/16 07:41:00;;;;;;;1.67;1.58;;;;;;;4.06;97.20;99179.13;4121329;28;20214;-46
2023/10/16 07:43:01;;;;;;;1.30;1.20;;;;;;;4.34;96.48;99188.16;4137072;28;20277;-46
2023/10/16 07:45:03;;;;;;;1.63;1.63;;;;;;;4.88;95.67;99183.81;4116981;28;20214;-46
2023/10/16 07:47:06;;;;;;;2.72;1.35;;;;;;;5.07;94.36;99175.81;4119474;28;20645;-46
2023/10/16 07:49:12;;;;;;;1.77;1.67;;;;;;;5.36;92.74;99177.47;4105439;28;20215;-47
2023/10/16 07:51:19;;;;;;;1.52;1.42;;;;;;;5.59;92.51;99177.97;4136168;28;20202;-47
2023/10/16 07:53:21;;;;;;;3.28;1.42;;;;;;;6.02;88.99;99168.56;4117142;28;20226;-46
2023/10/16 07:55:38;;;;;;;1.30;1.30;;;;;;;6.10;87.21;99176.53;4081589;28;20619;-47
2023/10/16 07:57:43;;;;;;;1.25;1.15;;;;;;;5.77;86.92;99167.41;4119062;28;20265;-47
2023/10/16 07:59:47;;;;;;;1.65;1.55;;;;;;;5.75;88.66;99169.50;4105422;28;20238;-46
2023/10/16 08:01:52;;;;;;;5.00;1.85;;;;;;;6.08;89.66;99173.19;4116900;28;22326;-46
2023/10/16 08:03:54;;;;;;;1.27;1.27;;;;;;;5.83;88.54;99164.72;4120212;28;20325;-47
2023/10/16 08:06:02;;;;;;;3.28;1.90;;;;;;;6.34;89.26;99170.47;4121729;28;20210;-46
2023/10/16 08:08:11;;;;;;;1.50;1.40;;;;;;;6.34;85.28;99170.47;4119045;28;20248;-46
2023/10/16 08:12:35;;;;;;;2.50;1.70;;;;;;;6.53;86.77;99165.06;4100561;28;20255;-47
2023/10/16 08:14:41;;;;;;;2.65;1.52;;;;;;;6.77;84.56;99171.78;4114868;28;20221;-47
2023/10/16 08:16:42;;;;;;;4.78;1.05;;;;;;;6.56;85.76;99158.38;4118312;28;20278;-46
2023/10/16 08:18:48;;;;;;;4.45;1.50;;;;;;;6.56;86.75;99159.22;4104658;28;20246;-46
2023/10/16 08:21:16;;;;;;;1.58;1.58;;;;;;;7.05;86.51;99165.03;4115427;28;20222;-46
2023/10/16 08:23:13;;;;;;;1.35;1.25;;;;;;;6.77;85.78;99169.03;4103740;28;20255;-46
2023/10/16 08:25:34;;;;;;;1.55;1.45;;;;;;;7.08;86.60;99169.25;4120068;28;20214;-47
2023/10/16 08:27:44;;;;;;;1.35;1.25;;;;;;;7.79;84.85;99168.16;4103924;28;20198;-46
2023/10/16 08:29:59;;;;;;;5.10;1.30;;;;;;;8.64;77.94;99157.59;4116192;28;20210;-46
2023/10/16 08:34:21;;;;;;;1.65;1.48;;;;;;;8.69;78.88;99168.69;4105064;28;20222;-46
2023/10/16 08:36:23;;;;;;;1.55;1.45;;;;;;;9.09;79.93;99161.81;4083980;28;20216;-46
2023/10/16 08:38:26;;;;;;;1.33;1.08;;;;;;;9.53;76.05;99158.81;4099279;28;20210;-46
2023/10/16 08:40:35;;;;;;;1.45;1.35;;;;;;;9.56;77.67;99158.38;4117451;28;20234;-47
2023/10/16 08:42:37;;;;;;;4.75;1.17;;;;;;;9.52;77.58;99165.34;4100156;28;20714;-47
2023/10/16 08:44:39;;;;;;;1.42;1.00;;;;;;;10.41;73.82;99158.09;4137097;28;20210;-46
2023/10/16 08:46:44;;;;;;;1.60;1.50;;;;;;;10.01;74.19;99163.25;4118708;28;20206;-46
2023/10/16 08:48:48;;;;;;;8.68;1.92;;;;;;;11.09;71.06;99163.69;4100983;28;20581;-46
2023/10/16 08:50:57;;;;;;;1.00;1.00;;;;;;;10.77;72.75;99165.06;4101290;28;20326;-46
2023/10/16 08:53:05;;;;;;;4.38;1.42;;;;;;;10.22;73.48;99160.03;4118249;28;20239;-46
2023/10/16 08:55:50;;;;;;;3.50;1.95;;;;;;;11.08;72.33;99162.03;4117112;28;20202;-46
2023/10/16 08:57:32;;;;;;;2.60;1.85;;;;;;;11.18;71.38;99154.03;4101456;28;20234;-47
2023/10/16 08:59:35;;;;;;;0.98;0.98;;;;;;;10.56;71.79;99166.72;4109236;28;20298;-46
2023/10/16 09:01:37;;;;;;;2.92;2.20;;;;;;;9.93;75.58;99154.53;4121800;28;20268;-47
2023/10/16 09:03:46;;;;;;;1.15;1.02;;;;;;;10.10;74.36;99158.34;4105725;28;20230;-47
2023/10/16 09:05:48;;;;;;;1.55;1.45;;;;;;;10.10;74.99;99147.41;4118450;28;20202;-46
2023/10/16 09:07:51;;;;;;;0.90;0.90;;;;;;;10.05;75.16;99152.72;4117472;28;20277;-45
2023/10/16 09:09:54;;;;;;;1.10;1.00;;;;;;;10.94;72.91;99149.63;4117724;28;20211;-46
2023/10/16 09:12:10;;;;;;;1.48;1.38;;;;;;;10.26;73.69;99154.94;4100209;28;20237;-46
2023/10/16 09:14:16;;;;;;;2.60;1.80;;;;;;;10.11;73.68;99162.72;4098107;28;20215;-46
2023/10/16 09:16:23;;;;;;;1.48;1.38;;;;;;;10.68;73.83;99149.22;4116805;28;20237;-45
2023/10/16 09:18:26;;;;;;;9.50;1.40;;;;;;;11.13;71.33;99153.09;4101105;28;20210;-46
2023/10/16 09:20:40;;;;;;;2.55;1.42;;;;;;;11.66;69.59;99160.13;4135411;28;20316;-47
2023/10/16 09:22:45;;;;;;;1.30;1.17;;;;;;;11.68;69.09;99157.97;4135516;28;20587;-46
2023/10/16 09:24:51;;;;;;;2.65;1.23;;;;;;;12.56;67.32;99145.44;4135429;28;20659;-46
2023/10/16 09:26:56;;;;;;;3.03;1.60;;;;;;;11.32;68.13;99144.50;4102271;28;20207;-46
2023/10/16 09:29:04;;;;;;;1.05;1.05;;;;;;;11.92;68.16;99143.09;4131285;28;20217;-46
2023/10/16 09:31:06;;;;;;;1.95;1.30;;;;;;;11.71;67.00;99146.50;4119004;28;20242;-46
2023/10/16 09:33:14;;;;;;;10.40;1.40;;;;;;;11.17;67.74;99130.47;4102862;28;20223;-46
2023/10/16 09:35:17;;;;;;;1.20;1.20;;;;;;;11.57;67.72;99128.63;4117667;28;20210;-46
2023/10/16 09:37:24;;;;;;;1.05;1.05;;;;;;;11.48;67.08;99141.03;4116943;28;20240;-45
2023/10/16 09:39:30;;;;;;;1.00;1.00;;;;;;;11.10;66.02;99129.75;4137275;28;20221;-45
2023/10/16 09:41:40;;;;;;;1.40;1.35;;;;;;;11.72;66.73;99131.72;4121950;28;20298;-46
2023/10/16 09:43:42;;;;;;;1.02;0.73;;;;;;;11.85;66.13;99131.44;4104424;28;20230;-46
2023/10/16 09:45:47;;;;;;;1.02;1.00;;;;;;;11.17;65.50;99130.47;4089699;28;20215;-46
2023/10/16 09:47:51;;;;;;;1.50;1.10;;;;;;;11.49;67.27;99130.91;4115867;28;20253;-46
2023/10/16 09:49:58;;;;;;;1.30;1.08;;;;;;;12.53;63.91;99126.75;4116812;28;20202;-46
2023/10/16 09:52:04;;;;;;;1.13;1.08;;;;;;;12.36;64.50;99134.09;4130923;28;20946;-45
2023/10/16 09:54:09;;;;;;;1.00;1.00;;;;;;;12.18;66.22;99137.03;4101684;28;20217;-46
2023/10/16 09:56:12;;;;;;;1.10;1.00;;;;;;;11.90;65.81;99134.28;4102119;28;20210;-48
2023/10/16 09:58:15;;;;;;;0.50;0.50;;;;;;;12.49;62.87;99132.94;4101685;28;20223;-46
2023/10/16 10:02:35;;;;;;;1.00;0.70;;;;;;;11.40;63.49;99135.94;4102541;28;20297;-46
2023/10/16 10:04:43;;;;;;;0.70;0.70;;;;;;;11.15;63.55;99135.34;4101369;28;20240;-47
2023/10/16 10:06:47;;;;;;;1.30;1.17;;;;;;;11.46;62.80;99121.28;4115119;28;20296;-46
2023/10/16 10:13:34;;;;;;;3.63;0.63;;;;;;;12.56;61.01;99107.00;4102596;28;20230;-46
2023/10/16 10:15:44;;;;;;;1.88;1.75;;;;;;;11.97;62.47;99118.53;4099533;28;20319;-45
2023/10/16 10:17:47;;;;;;;0.75;0.75;;;;;;;12.62;60.64;99111.50;4118447;28;20292;-46
2023/10/16 10:19:55;;;;;;;0.80;0.80;;;;;;;12.68;60.57;99113.28;4101665;28;20223;-47
2023/10/16 10:22:17;;;;;;;1.25;1.15;;;;;;;13.42;58.08;99107.31;4116274;28;20209;-46
2023/10/16 10:24:23;;;;;;;0.60;0.60;;;;;;;13.89;56.73;99108.47;4113475;28;20209;-46
2023/10/16 10:26:26;;;;;;;1.13;1.10;;;;;;;13.28;55.56;99117.00;4114202;28;20214;-47
2023/10/16 10:28:36;;;;;;;0.70;0.70;;;;;;;13.02;56.80;99106.72;4114817;28;20245;-46
2023/10/16 10:30:43;;;;;;;0.85;0.85;;;;;;;12.89;56.82;99096.03;4132601;28;20997;-46
2023/10/16 10:33:00;;;;;;;0.85;0.60;;;;;;;13.08;56.55;99100.22;4102096;28;20237;-46
2023/10/16 10:35:26;;;;;;;0.82;0.82;;;;;;;13.27;57.50;99103.50;4118102;28;20229;-46
2023/10/16 10:37:41;;;;;;;0.50;0.50;;;;;;;12.56;57.08;99096.03;4101103;28;21070;-46
2023/10/16 10:39:47;;;;;;;0.70;0.70;;;;;;;12.78;56.70;99087.91;4116897;28;20668;-46
2023/10/16 10:41:54;;;;;;;1.25;1.15;;;;;;;12.90;57.65;99091.38;4116920;28;20206;-46
2023/10/16 10:44:08;;;;;;;0.45;0.45;;;;;;;13.32;56.54;99090.69;4134817;28;20686;-46
2023/10/16 10:46:22;;;;;;;1.38;1.27;;;;;;;12.79;56.26;99082.16;4118714;28;20240;-45
2023/10/16 10:48:24;;;;;;;0.57;0.57;;;;;;;12.39;58.28;99084.22;4099802;28;20210;-46
2023/10/16 10:50:26;;;;;;;1.00;1.00;;;;;;;12.78;57.54;99074.97;4133104;28;20722;-46
2023/10/16 10:52:33;;;;;;;1.77;0.68;;;;;;;12.97;57.79;99070.09;4132132;28;20233;-46
2023/10/16 10:54:35;;;;;;;1.20;0.73;;;;;;;13.84;56.16;99064.38;4118070;28;20206;-46
2023/10/16 10:56:41;;;;;;;0.80;0.80;;;;;;;13.25;55.15;99078.19;4134963;28;20220;-46
2023/10/16 10:58:44;;;;;;;2.38;0.85;;;;;;;12.73;56.05;99069.44;4115617;28;21121;-46
2023/10/16 11:00:50;;;;;;;1.27;1.00;;;;;;;12.74;56.87;99059.25;4083867;28;20271;-47
2023/10/16 11:03:05;;;;;;;0.60;0.60;;;;;;;12.82;56.63;99056.06;4100120;28;20638;-46
2023/10/16 11:05:22;;;;;;;0.73;0.65;;;;;;;13.25;56.28;99057.03;4121895;28;20212;-46
2023/10/16 11:07:29;;;;;;;0.57;0.57;;;;;;;13.26;55.93;99053.22;4135505;28;20201;-46
2023/10/16 11:09:33;;;;;;;0.52;0.52;;;;;;;13.11;55.67;99050.22;4118770;28;20241;-46
2023/10/16 11:11:39;;;;;;;0.77;0.77;;;;;;;13.16;56.60;99047.56;4122045;28;20206;-44
2023/10/16 11:13:47;;;;;;;0.70;0.70;;;;;;;13.30;56.74;99043.38;4116233;28;20288;-45
2023/10/16 11:15:54;;;;;;;0.55;0.55;;;;;;;13.02;55.71;99046.28;4101891;28;20323;-45
2023/10/16 11:18:05;;;;;;;0.85;0.85;;;;;;;13.69;56.58;99036.72;4120137;28;20270;-46
2023/10/16 11:22:27;;;;;;;2.28;1.05;;;;;;;13.38;54.46;99031.09;4101738;28;20241;-46
2023/10/16 11:24:29;;;;;;;2.13;1.02;;;;;;;13.39;55.41;99030.00;4108250;28;20583;-48
2023/10/16 11:26:32;;;;;;;3.55;0.95;;;;;;;13.03;54.87;99019.63;4101730;28;20236;-46
2023/10/16 11:28:37;;;;;;;16.70;0.90;;;;;;;13.55;55.84;99016.19;4100307;28;20207;-46
2023/10/16 11:30:39;;;;;;;0.60;0.60;;;;;;;13.36;55.42;99003.88;4099166;28;20334;-48
2023/10/16 11:32:46;;;;;;;4.18;1.45;;;;;;;14.07;54.66;99006.31;4083804;28;20322;-46